sensor_id;sensor_type;location;lat;lon;timestamp;pressure;altitude;pressure_sealevel;temperature;humidity
27429;BME280;14881;48.092;11.574;2023-05-28T00:01:14;95576.56;;;7.95;100.00
27429;BME280;14881;48.092;11.574;2023-05-28T00:03:41;95580.06;;;7.96;100.00
27429;BME280;14881;48.092;11.574;2023-05-28T00:06:08;95575.72;;;7.85;100.00
27429;BME280;14881;48.092;11.574;2023-05-28T00:08:34;95578.16;;;7.86;100.00
27429;BME280;14881;48.092;11.574;2023-05-28T00:11:01;95576.00;;;7.88;100.00
27429;BME280;14881;48.092;11.574;2023-05-28T00:13:28;95577.09;;;7.77;100.00
27429;BME280;14881;48.092;11.574;2023-05-28T00:15:55;95571.41;;;7.74;100.00
27429;BME280;14881;48.092;11.574;2023-05-28T00:18:22;95576.53;;;7.70;100.00
27429;BME280;14881;48.092;11.574;2023-05-28T00:20:49;95576.81;;;7.74;100.00
27429;BME280;14881;48.092;11.574;2023-05-28T00:23:16;95574.38;;;7.72;100.00
27429;BME280;14881;48.092;11.574;2023-05-28T00:25:43;95574.09;;;7.68;100.00
27429;BME280;14881;48.092;11.574;2023-05-28T00:28:10;95570.59;;;7.73;100.00
27429;BME280;14881;48.092;11.574;2023-05-28T00:30:37;95572.19;;;7.69;100.00
27429;BME280;14881;48.092;11.574;2023-05-28T00:33:03;95577.88;;;7.62;100.00
27429;BME280;14881;48.092;11.574;2023-05-28T00:35:30;95574.91;;;7.54;100.00
27429;BME280;14881;48.092;11.574;2023-05-28T00:37:56;95573.25;;;7.48;100.00
27429;BME280;14881;48.092;11.574;2023-05-28T00:40:23;95574.34;;;7.42;100.00
27429;BME280;14881;48.092;11.574;2023-05-28T00:42:50;95573.28;;;7.43;100.00
27429;BME280;14881;48.092;11.574;2023-05-28T00:45:17;95566.78;;;7.44;100.00
27429;BME280;14881;48.092;11.574;2023-05-28T00:47:43;95570.53;;;7.38;100.00
27429;BME280;14881;48.092;11.574;2023-05-28T00:50:11;95570.25;;;7.29;100.00
27429;BME280;14881;48.092;11.574;2023-05-28T00:52:39;95564.81;;;7.19;100.00
27429;BME280;14881;48.092;11.574;2023-05-28T00:55:15;95566.75;;;7.23;100.00
27429;BME280;14881;48.092;11.574;2023-05-28T00:57:43;95569.44;;;7.23;100.00
27429;BME280;14881;48.092;11.574;2023-05-28T01:00:10;95570.78;;;7.21;100.00
27429;BME280;14881;48.092;11.574;2023-05-28T01:02:37;95568.88;;;7.16;100.00
27429;BME280;14881;48.092;11.574;2023-05-28T01:05:04;95576.94;;;7.11;100.00
27429;BME280;14881;48.092;11.574;2023-05-28T01:07:31;95576.91;;;6.96;100.00
27429;BME280;14881;48.092;11.574;2023-05-28T01:09:58;95578.25;;;6.88;100.00
27429;BME280;14881;48.092;11.574;2023-05-28T01:12:25;95574.19;;;6.86;100.00
27429;BME280;14881;48.092;11.574;2023-05-28T01:14:52;95575.28;;;6.90;100.00
27429;BME280;14881;48.092;11.574;2023-05-28T01:17:19;95570.16;;;6.93;100.00
27429;BME280;14881;48.092;11.574;2023-05-28T01:19:46;95568.81;;;6.96;100.00
27429;BME280;14881;48.092;11.574;2023-05-28T01:22:16;95560.41;;;6.87;100.00
27429;BME280;14881;48.092;11.574;2023-05-28T01:24:44;95563.34;;;6.81;100.00
27429;BME280;14881;48.092;11.574;2023-05-28T01:27:12;95570.09;;;6.78;100.00
27429;BME280;14881;48.092;11.574;2023-05-28T01:29:38;95564.94;;;6.77;100.00
27429;BME280;14881;48.092;11.574;2023-05-28T01:32:05;95562.00;;;6.73;100.00
27429;BME280;14881;48.092;11.574;2023-05-28T01:34:31;95557.63;;;6.67;100.00
27429;BME280;14881;48.092;11.574;2023-05-28T01:37:01;95553.53;;;6.59;100.00
27429;BME280;14881;48.092;11.574;2023-05-28T01:39:31;95551.38;;;6.61;100.00
27429;BME280;14881;48.092;11.574;2023-05-28T01:42:02;95559.22;;;6.63;100.00
27429;BME280;14881;48.092;11.574;2023-05-28T01:44:29;95549.75;;;6.55;100.00
27429;BME280;14881;48.092;11.574;2023-05-28T01:46:56;95543.50;;;6.45;100.00
27429;BME280;14881;48.092;11.574;2023-05-28T01:49:23;95547.53;;;6.37;100.00
27429;BME280;14881;48.092;11.574;2023-05-28T01:51:50;95551.31;;;6.46;100.00
27429;BME280;14881;48.092;11.574;2023-05-28T01:54:29;95550.22;;;6.42;100.00
27429;BME280;14881;48.092;11.574;2023-05-28T01:57:02;95546.41;;;6.33;100.00
27429;BME280;14881;48.092;11.574;2023-05-28T01:59:41;95539.34;;;6.27;100.00
27429;BME280;14881;48.092;11.574;2023-05-28T02:05:26;95551.75;;;6.23;100.00
27429;BME280;14881;48.092;11.574;2023-05-28T02:07:56;95546.31;;;6.18;100.00
27429;BME280;14881;48.092;11.574;2023-05-28T02:10:24;95547.91;;;6.14;100.00
27429;BME280;14881;48.092;11.574;2023-05-28T02:12:52;95554.13;;;6.14;100.00
27429;BME280;14881;48.092;11.574;2023-05-28T02:15:20;95546.81;;;6.10;100.00
27429;BME280;14881;48.092;11.574;2023-05-28T02:17:54;95550.78;;;5.97;100.00
27429;BME280;14881;48.092;11.574;2023-05-28T02:20:21;95537.63;;;6.06;100.00
27429;BME280;14881;48.092;11.574;2023-05-28T02:23:07;95541.09;;;6.06;100.00
27429;BME280;14881;48.092;11.574;2023-05-28T02:25:40;95540.28;;;6.01;100.00
27429;BME280;14881;48.092;11.574;2023-05-28T02:28:10;95539.16;;;5.97;100.00
27429;BME280;14881;48.092;11.574;2023-05-28T02:30:39;95545.34;;;5.92;100.00
27429;BME280;14881;48.092;11.574;2023-05-28T02:33:05;95539.91;;;5.87;100.00
27429;BME280;14881;48.092;11.574;2023-05-28T02:35:38;95546.66;;;5.89;100.00
27429;BME280;14881;48.092;11.574;2023-05-28T02:38:04;95548.03;;;5.92;100.00
27429;BME280;14881;48.092;11.574;2023-05-28T02:40:31;95543.44;;;5.92;100.00
27429;BME280;14881;48.092;11.574;2023-05-28T02:43:01;95549.34;;;5.89;100.00
27429;BME280;14881;48.092;11.574;2023-05-28T02:45:28;95543.97;;;5.89;100.00
27429;BME280;14881;48.092;11.574;2023-05-28T02:48:04;95549.34;;;5.89;100.00
27429;BME280;14881;48.092;11.574;2023-05-28T02:50:37;95546.09;;;5.87;100.00
27429;BME280;14881;48.092;11.574;2023-05-28T02:53:20;95554.34;;;5.76;100.00
27429;BME280;14881;48.092;11.574;2023-05-28T02:55:53;95554.84;;;5.73;100.00
27429;BME280;14881;48.092;11.574;2023-05-28T02:58:22;95558.34;;;5.68;100.00
27429;BME280;14881;48.092;11.574;2023-05-28T03:00:50;95552.97;;;5.73;100.00
27429;BME280;14881;48.092;11.574;2023-05-28T03:03:16;95560.25;;;5.73;100.00
27429;BME280;14881;48.092;11.574;2023-05-28T03:05:43;95569.94;;;5.69;100.00
27429;BME280;14881;48.092;11.574;2023-05-28T03:08:09;95563.22;;;5.71;100.00
27429;BME280;14881;48.092;11.574;2023-05-28T03:10:36;95567.25;;;5.69;100.00
27429;BME280;14881;48.092;11.574;2023-05-28T03:19:24;95574.16;;;5.59;100.00
27429;BME280;14881;48.092;11.574;2023-05-28T03:21:51;95575.22;;;5.58;100.00
27429;BME280;14881;48.092;11.574;2023-05-28T03:24:17;95570.16;;;5.62;100.00
27429;BME280;14881;48.092;11.574;2023-05-28T03:26:50;95573.16;;;5.66;100.00
27429;BME280;14881;48.092;11.574;2023-05-28T03:29:22;95576.66;;;5.66;100.00
27429;BME280;14881;48.092;11.574;2023-05-28T03:31:51;95574.78;;;5.67;100.00
27429;BME280;14881;48.092;11.574;2023-05-28T03:34:40;95572.03;;;5.62;100.00
27429;BME280;14881;48.092;11.574;2023-05-28T03:37:10;95567.19;;;5.64;100.00
27429;BME280;14881;48.092;11.574;2023-05-28T03:39:36;95575.84;;;5.66;100.00
27429;BME280;14881;48.092;11.574;2023-05-28T03:42:27;95568.31;;;5.68;100.00
27429;BME280;14881;48.092;11.574;2023-05-28T03:44:54;95569.13;;;5.68;100.00
27429;BME280;14881;48.092;11.574;2023-05-28T03:47:20;95571.00;;;5.68;100.00
27429;BME280;14881;48.092;11.574;2023-05-28T03:49:48;95571.81;;;5.68;100.00
27429;BME280;14881;48.092;11.574;2023-05-28T03:52:20;95562.94;;;5.68;100.00
27429;BME280;14881;48.092;11.574;2023-05-28T03:54:56;95567.44;;;5.62;100.00
27429;BME280;14881;48.092;11.574;2023-05-28T03:57:29;95560.19;;;5.63;100.00
27429;BME280;14881;48.092;11.574;2023-05-28T04:00:33;95567.75;;;5.66;100.00
27429;BME280;14881;48.092;11.574;2023-05-28T04:02:48;95565.88;;;5.66;100.00
27429;BME280;14881;48.092;11.574;2023-05-28T04:05:23;95580.75;;;5.74;100.00
27429;BME280;14881;48.092;11.574;2023-05-28T04:08:22;95574.03;;;5.76;100.00
27429;BME280;14881;48.092;11.574;2023-05-28T04:10:54;95576.78;;;5.81;100.00
27429;BME280;14881;48.092;11.574;2023-05-28T04:13:21;95568.44;;;5.83;100.00
27429;BME280;14881;48.092;11.574;2023-05-28T04:15:55;95574.19;;;5.91;100.00
27429;BME280;14881;48.092;11.574;2023-05-28T04:18:32;95568.31;;;6.00;100.00
27429;BME280;14881;48.092;11.574;2023-05-28T04:21:07;95575.91;;;6.03;100.00
27429;BME280;14881;48.092;11.574;2023-05-28T04:23:42;95565.69;;;6.10;100.00
27429;BME280;14881;48.092;11.574;2023-05-28T04:26:14;95563.53;;;6.12;100.00
27429;BME280;14881;48.092;11.574;2023-05-28T04:29:00;95566.28;;;6.17;100.00
27429;BME280;14881;48.092;11.574;2023-05-28T04:31:33;95561.19;;;6.25;100.00
27429;BME280;14881;48.092;11.574;2023-05-28T04:34:00;95569.63;;;6.34;100.00
27429;BME280;14881;48.092;11.574;2023-05-28T04:36:33;95574.50;;;6.42;100.00
27429;BME280;14881;48.092;11.574;2023-05-28T04:39:02;95572.13;;;6.51;100.00
27429;BME280;14881;48.092;11.574;2023-05-28T04:41:36;95574.63;;;6.62;100.00
27429;BME280;14881;48.092;11.574;2023-05-28T04:44:20;95578.72;;;6.70;100.00
27429;BME280;14881;48.092;11.574;2023-05-28T04:47:24;95585.50;;;6.83;100.00
27429;BME280;14881;48.092;11.574;2023-05-28T04:49:56;95581.22;;;6.97;100.00
27429;BME280;14881;48.092;11.574;2023-05-28T04:52:24;95589.38;;;7.07;100.00
27429;BME280;14881;48.092;11.574;2023-05-28T04:55:06;95582.13;;;7.18;100.00
27429;BME280;14881;48.092;11.574;2023-05-28T04:57:33;95576.72;;;7.28;100.00
27429;BME280;14881;48.092;11.574;2023-05-28T05:00:09;95583.25;;;7.42;100.00
27429;BME280;14881;48.092;11.574;2023-05-28T05:02:49;95583.53;;;7.51;100.00
27429;BME280;14881;48.092;11.574;2023-05-28T05:05:19;95578.69;;;7.63;100.00
27429;BME280;14881;48.092;11.574;2023-05-28T05:08:01;95579.53;;;7.79;100.00
27429;BME280;14881;48.092;11.574;2023-05-28T05:10:43;95576.81;;;7.94;100.00
27429;BME280;14881;48.092;11.574;2023-05-28T05:13:13;95591.16;;;8.10;100.00
27429;BME280;14881;48.092;11.574;2023-05-28T05:15:40;95584.38;;;8.22;100.00
27429;BME280;14881;48.092;11.574;2023-05-28T05:18:21;95583.81;;;8.41;100.00
27429;BME280;14881;48.092;11.574;2023-05-28T05:20:57;95583.78;;;8.56;100.00
27429;BME280;14881;48.092;11.574;2023-05-28T05:25:59;95571.50;;;8.84;100.00
27429;BME280;14881;48.092;11.574;2023-05-28T05:28:26;95572.78;;;9.01;100.00
27429;BME280;14881;48.092;11.574;2023-05-28T05:30:52;95563.75;;;9.21;100.00
27429;BME280;14881;48.092;11.574;2023-05-28T05:33:19;95570.69;;;9.42;100.00
27429;BME280;14881;48.092;11.574;2023-05-28T05:35:45;95569.13;;;9.70;100.00
27429;BME280;14881;48.092;11.574;2023-05-28T05:38:11;95564.13;;;9.88;100.00
27429;BME280;14881;48.092;11.574;2023-05-28T05:40:38;95571.84;;;10.04;100.00
27429;BME280;14881;48.092;11.574;2023-05-28T05:43:05;95560.31;;;10.23;100.00
27429;BME280;14881;48.092;11.574;2023-05-28T05:45:31;95555.22;;;10.45;100.00
27429;BME280;14881;48.092;11.574;2023-05-28T05:47:58;95555.81;;;10.66;100.00
27429;BME280;14881;48.092;11.574;2023-05-28T05:50:24;95550.44;;;10.85;100.00
27429;BME280;14881;48.092;11.574;2023-05-28T05:52:50;95544.25;;;11.03;100.00
27429;BME280;14881;48.092;11.574;2023-05-28T05:55:17;95551.03;;;11.24;100.00
27429;BME280;14881;48.092;11.574;2023-05-28T05:57:44;95541.28;;;11.42;100.00
27429;BME280;14881;48.092;11.574;2023-05-28T06:00:13;95538.53;;;11.61;100.00
27429;BME280;14881;48.092;11.574;2023-05-28T06:02:40;95545.97;;;11.74;100.00
27429;BME280;14881;48.092;11.574;2023-05-28T06:05:08;95545.84;;;11.84;100.00
27429;BME280;14881;48.092;11.574;2023-05-28T06:07:34;95537.41;;;11.99;100.00
27429;BME280;14881;48.092;11.574;2023-05-28T06:10:01;95539.59;;;12.16;100.00
27429;BME280;14881;48.092;11.574;2023-05-28T06:12:27;95540.53;;;12.25;100.00
27429;BME280;14881;48.092;11.574;2023-05-28T06:14:54;95524.94;;;12.44;100.00
27429;BME280;14881;48.092;11.574;2023-05-28T06:17:21;95537.03;;;12.52;100.00
27429;BME280;14881;48.092;11.574;2023-05-28T06:19:48;95529.00;;;12.61;100.00
27429;BME280;14881;48.092;11.574;2023-05-28T06:22:15;95533.72;;;12.69;100.00
27429;BME280;14881;48.092;11.574;2023-05-28T06:24:42;95539.19;;;12.82;100.00
27429;BME280;14881;48.092;11.574;2023-05-28T06:27:08;95538.91;;;12.98;100.00
27429;BME280;14881;48.092;11.574;2023-05-28T06:29:35;95528.56;;;13.08;100.00
27429;BME280;14881;48.092;11.574;2023-05-28T06:32:02;95541.22;;;13.18;100.00
27429;BME280;14881;48.092;11.574;2023-05-28T06:34:29;95535.66;;;13.23;100.00
27429;BME280;14881;48.092;11.574;2023-05-28T06:36:55;95530.59;;;13.30;100.00
27429;BME280;14881;48.092;11.574;2023-05-28T06:39:22;95536.34;;;13.42;100.00
27429;BME280;14881;48.092;11.574;2023-05-28T06:41:48;95536.00;;;13.57;100.00
27429;BME280;14881;48.092;11.574;2023-05-28T06:44:14;95540.22;;;13.64;100.00
27429;BME280;14881;48.092;11.574;2023-05-28T06:46:41;95544.31;;;13.75;100.00
27429;BME280;14881;48.092;11.574;2023-05-28T06:49:07;95533.03;;;13.90;100.00
27429;BME280;14881;48.092;11.574;2023-05-28T06:51:34;95535.25;;;14.02;100.00
27429;BME280;14881;48.092;11.574;2023-05-28T06:54:02;95531.06;;;14.04;100.00
27429;BME280;14881;48.092;11.574;2023-05-28T06:56:28;95537.72;;;14.12;100.00
27429;BME280;14881;48.092;11.574;2023-05-28T06:58:55;95536.59;;;14.13;100.00
27429;BME280;14881;48.092;11.574;2023-05-28T07:01:21;95533.91;;;14.21;100.00
27429;BME280;14881;48.092;11.574;2023-05-28T07:03:48;95533.66;;;14.32;100.00
27429;BME280;14881;48.092;11.574;2023-05-28T07:06:14;95540.69;;;14.46;100.00
27429;BME280;14881;48.092;11.574;2023-05-28T07:08:41;95530.16;;;14.40;100.00
27429;BME280;14881;48.092;11.574;2023-05-28T07:11:10;95533.72;;;14.40;100.00
27429;BME280;14881;48.092;11.574;2023-05-28T07:13:37;95536.84;;;14.47;100.00
27429;BME280;14881;48.092;11.574;2023-05-28T07:16:04;95525.19;;;14.64;100.00
27429;BME280;14881;48.092;11.574;2023-05-28T07:18:31;95530.53;;;14.78;100.00
27429;BME280;14881;48.092;11.574;2023-05-28T07:20:57;95520.97;;;14.89;100.00
27429;BME280;14881;48.092;11.574;2023-05-28T07:23:24;95525.50;;;15.02;100.00
27429;BME280;14881;48.092;11.574;2023-05-28T07:25:52;95522.63;;;15.16;100.00
27429;BME280;14881;48.092;11.574;2023-05-28T07:28:18;95519.59;;;15.26;100.00
27429;BME280;14881;48.092;11.574;2023-05-28T07:30:45;95511.41;;;15.35;100.00
27429;BME280;14881;48.092;11.574;2023-05-28T07:33:12;95520.09;;;15.45;100.00
27429;BME280;14881;48.092;11.574;2023-05-28T07:35:41;95517.09;;;15.64;100.00
27429;BME280;14881;48.092;11.574;2023-05-28T07:38:07;95525.66;;;15.71;100.00
27429;BME280;14881;48.092;11.574;2023-05-28T07:40:36;95523.88;;;15.84;100.00
27429;BME280;14881;48.092;11.574;2023-05-28T07:43:03;95519.22;;;15.93;100.00
27429;BME280;14881;48.092;11.574;2023-05-28T07:45:29;95516.16;;;16.03;100.00
27429;BME280;14881;48.092;11.574;2023-05-28T07:47:56;95520.19;;;16.06;100.00
27429;BME280;14881;48.092;11.574;2023-05-28T07:50:22;95510.97;;;16.19;100.00
27429;BME280;14881;48.092;11.574;2023-05-28T07:52:49;95514.97;;;16.39;100.00
27429;BME280;14881;48.092;11.574;2023-05-28T07:55:16;95510.56;;;16.46;100.00
27429;BME280;14881;48.092;11.574;2023-05-28T07:57:42;95512.50;;;16.54;100.00
27429;BME280;14881;48.092;11.574;2023-05-28T08:00:10;95512.63;;;16.75;100.00
27429;BME280;14881;48.092;11.574;2023-05-28T08:02:37;95511.22;;;16.98;100.00
27429;BME280;14881;48.092;11.574;2023-05-28T08:05:04;95505.72;;;17.07;100.00
27429;BME280;14881;48.092;11.574;2023-05-28T08:07:31;95506.59;;;17.20;100.00
27429;BME280;14881;48.092;11.574;2023-05-28T08:09:57;95499.53;;;17.39;100.00
27429;BME280;14881;48.092;11.574;2023-05-28T08:12:24;95503.97;;;17.53;100.00
27429;BME280;14881;48.092;11.574;2023-05-28T08:14:51;95504.78;;;17.83;100.00
27429;BME280;14881;48.092;11.574;2023-05-28T08:17:20;95502.84;;;17.83;100.00
27429;BME280;14881;48.092;11.574;2023-05-28T08:19:47;95501.81;;;17.88;100.00
27429;BME280;14881;48.092;11.574;2023-05-28T08:22:26;95496.72;;;17.98;100.00
27429;BME280;14881;48.092;11.574;2023-05-28T08:24:52;95500.00;;;18.25;100.00
27429;BME280;14881;48.092;11.574;2023-05-28T08:27:19;95495.59;;;18.32;100.00
27429;BME280;14881;48.092;11.574;2023-05-28T08:29:46;95500.66;;;18.42;100.00
27429;BME280;14881;48.092;11.574;2023-05-28T08:32:13;95498.97;;;18.50;100.00
27429;BME280;14881;48.092;11.574;2023-05-28T08:34:40;95495.50;;;18.53;100.00
27429;BME280;14881;48.092;11.574;2023-05-28T08:37:06;95491.19;;;18.52;100.00
27429;BME280;14881;48.092;11.574;2023-05-28T08:39:33;95491.09;;;18.73;100.00
27429;BME280;14881;48.092;11.574;2023-05-28T08:41:59;95491.56;;;18.75;100.00
27429;BME280;14881;48.092;11.574;2023-05-28T08:44:27;95488.28;;;18.82;100.00
27429;BME280;14881;48.092;11.574;2023-05-28T08:46:55;95484.03;;;18.84;97.29
27429;BME280;14881;48.092;11.574;2023-05-28T08:49:27;95487.13;;;18.95;98.62
27429;BME280;14881;48.092;11.574;2023-05-28T08:51:59;95484.50;;;18.98;97.89
27429;BME280;14881;48.092;11.574;2023-05-28T08:54:27;95479.31;;;19.09;100.00
27429;BME280;14881;48.092;11.574;2023-05-28T08:56:54;95472.88;;;19.29;100.00
27429;BME280;14881;48.092;11.574;2023-05-28T08:59:21;95473.25;;;19.52;97.38
27429;BME280;14881;48.092;11.574;2023-05-28T09:01:49;95471.94;;;19.62;92.81
27429;BME280;14881;48.092;11.574;2023-05-28T09:04:15;95469.19;;;19.62;92.10
27429;BME280;14881;48.092;11.574;2023-05-28T09:06:41;95466.66;;;19.69;85.75
27429;BME280;14881;48.092;11.574;2023-05-28T09:09:09;95465.50;;;19.70;81.25
27429;BME280;14881;48.092;11.574;2023-05-28T09:11:35;95469.59;;;19.88;85.82
27429;BME280;14881;48.092;11.574;2023-05-28T09:14:08;95469.47;;;20.12;94.35
27429;BME280;14881;48.092;11.574;2023-05-28T09:16:39;95472.09;;;20.21;84.88
27429;BME280;14881;48.092;11.574;2023-05-28T09:19:06;95473.19;;;20.32;81.64
27429;BME280;14881;48.092;11.574;2023-05-28T09:21:33;95471.41;;;20.24;82.68
27429;BME280;14881;48.092;11.574;2023-05-28T09:23:59;95468.72;;;20.40;86.29
27429;BME280;14881;48.092;11.574;2023-05-28T09:26:28;95458.81;;;20.39;81.16
27429;BME280;14881;48.092;11.574;2023-05-28T09:28:56;95469.69;;;20.47;81.00
27429;BME280;14881;48.092;11.574;2023-05-28T09:31:27;95458.59;;;20.75;80.14
27429;BME280;14881;48.092;11.574;2023-05-28T09:33:54;95459.66;;;20.71;75.54
27429;BME280;14881;48.092;11.574;2023-05-28T09:36:21;95453.25;;;20.82;79.08
27429;BME280;14881;48.092;11.574;2023-05-28T09:38:47;95457.25;;;20.85;77.95
27429;BME280;14881;48.092;11.574;2023-05-28T09:41:18;95452.44;;;20.98;83.24
27429;BME280;14881;48.092;11.574;2023-05-28T09:43:45;95454.84;;;20.99;75.37
27429;BME280;14881;48.092;11.574;2023-05-28T09:46:12;95454.81;;;21.15;76.44
27429;BME280;14881;48.092;11.574;2023-05-28T09:48:38;95463.88;;;21.28;73.77
27429;BME280;14881;48.092;11.574;2023-05-28T09:51:07;95458.84;;;21.33;72.87
27429;BME280;14881;48.092;11.574;2023-05-28T09:53:37;95451.97;;;21.43;73.32
27429;BME280;14881;48.092;11.574;2023-05-28T09:56:07;95451.19;;;21.42;68.17
27429;BME280;14881;48.092;11.574;2023-05-28T09:58:34;95443.94;;;21.73;74.48
27429;BME280;14881;48.092;11.574;2023-05-28T10:01:06;95445.66;;;21.97;70.08
27429;BME280;14881;48.092;11.574;2023-05-28T10:03:37;95453.13;;;21.96;68.60
27429;BME280;14881;48.092;11.574;2023-05-28T10:06:10;95444.91;;;22.00;63.73
27429;BME280;14881;48.092;11.574;2023-05-28T10:08:38;95441.41;;;22.22;65.89
27429;BME280;14881;48.092;11.574;2023-05-28T10:11:07;95450.13;;;22.63;71.67
27429;BME280;14881;48.092;11.574;2023-05-28T10:13:35;95442.97;;;22.62;62.15
27429;BME280;14881;48.092;11.574;2023-05-28T10:16:03;95447.88;;;22.72;63.84
27429;BME280;14881;48.092;11.574;2023-05-28T10:18:30;95441.72;;;23.01;66.62
27429;BME280;14881;48.092;11.574;2023-05-28T10:20:58;95447.28;;;23.27;62.37
27429;BME280;14881;48.092;11.574;2023-05-28T10:23:27;95440.69;;;23.36;66.02
27429;BME280;14881;48.092;11.574;2023-05-28T10:25:54;95444.94;;;23.56;60.39
27429;BME280;14881;48.092;11.574;2023-05-28T10:28:21;95431.66;;;23.69;57.95
27429;BME280;14881;48.092;11.574;2023-05-28T10:31:00;95445.53;;;23.99;64.09
27429;BME280;14881;48.092;11.574;2023-05-28T10:33:30;95438.66;;;24.19;58.09
27429;BME280;14881;48.092;11.574;2023-05-28T10:35:59;95428.31;;;24.16;51.75
27429;BME280;14881;48.092;11.574;2023-05-28T10:38:26;95427.75;;;24.33;53.93
27429;BME280;14881;48.092;11.574;2023-05-28T10:40:59;95432.59;;;24.43;54.23
27429;BME280;14881;48.092;11.574;2023-05-28T10:43:45;95430.06;;;24.64;53.71
27429;BME280;14881;48.092;11.574;2023-05-28T10:46:14;95432.13;;;24.71;48.48
27429;BME280;14881;48.092;11.574;2023-05-28T10:48:43;95426.72;;;24.89;48.41
27429;BME280;14881;48.092;11.574;2023-05-28T10:51:46;95422.19;;;25.11;53.19
27429;BME280;14881;48.092;11.574;2023-05-28T10:54:14;95418.19;;;25.08;48.31
27429;BME280;14881;48.092;11.574;2023-05-28T10:57:05;95420.56;;;25.10;49.77
27429;BME280;14881;48.092;11.574;2023-05-28T10:59:48;95418.88;;;25.53;50.23
27429;BME280;14881;48.092;11.574;2023-05-28T11:02:22;95410.38;;;25.90;52.17
27429;BME280;14881;48.092;11.574;2023-05-28T11:04:53;95411.25;;;26.08;50.44
27429;BME280;14881;48.092;11.574;2023-05-28T11:07:21;95404.91;;;26.18;50.56
27429;BME280;14881;48.092;11.574;2023-05-28T11:09:48;95406.13;;;26.21;46.96
27429;BME280;14881;48.092;11.574;2023-05-28T11:12:15;95403.22;;;25.89;45.61
27429;BME280;14881;48.092;11.574;2023-05-28T11:14:42;95408.66;;;25.67;47.28
27429;BME280;14881;48.092;11.574;2023-05-28T11:17:09;95411.59;;;25.34;44.94
27429;BME280;14881;48.092;11.574;2023-05-28T11:19:40;95409.91;;;25.74;46.27
27429;BME280;14881;48.092;11.574;2023-05-28T11:22:08;95398.41;;;25.86;48.88
27429;BME280;14881;48.092;11.574;2023-05-28T11:24:53;95410.41;;;26.00;49.36
27429;BME280;14881;48.092;11.574;2023-05-28T11:27:21;95418.06;;;26.14;45.75
27429;BME280;14881;48.092;11.574;2023-05-28T11:29:47;95409.28;;;26.09;42.66
27429;BME280;14881;48.092;11.574;2023-05-28T11:32:17;95404.88;;;26.08;42.69
27429;BME280;14881;48.092;11.574;2023-05-28T11:34:44;95404.50;;;26.16;46.93
27429;BME280;14881;48.092;11.574;2023-05-28T11:37:11;95409.72;;;26.21;45.00
27429;BME280;14881;48.092;11.574;2023-05-28T11:39:38;95405.06;;;26.54;46.50
27429;BME280;14881;48.092;11.574;2023-05-28T11:42:07;95395.03;;;26.35;43.26
27429;BME280;14881;48.092;11.574;2023-05-28T11:44:34;95394.66;;;26.40;45.30
27429;BME280;14881;48.092;11.574;2023-05-28T11:47:00;95403.34;;;26.14;41.93
27429;BME280;14881;48.092;11.574;2023-05-28T11:49:27;95400.81;;;25.87;43.42
27429;BME280;14881;48.092;11.574;2023-05-28T11:51:53;95392.47;;;25.87;40.57
27429;BME280;14881;48.092;11.574;2023-05-28T11:54:21;95393.34;;;26.09;43.65
27429;BME280;14881;48.092;11.574;2023-05-28T11:56:48;95385.94;;;26.49;43.61
27429;BME280;14881;48.092;11.574;2023-05-28T11:59:15;95392.56;;;26.16;40.05
27429;BME280;14881;48.092;11.574;2023-05-28T12:01:44;95393.91;;;25.60;39.57
27429;BME280;14881;48.092;11.574;2023-05-28T12:04:11;95394.03;;;25.78;41.46
27429;BME280;14881;48.092;11.574;2023-05-28T12:06:49;95391.69;;;25.90;41.65
27429;BME280;14881;48.092;11.574;2023-05-28T12:09:16;95390.41;;;25.74;42.59
27429;BME280;14881;48.092;11.574;2023-05-28T12:11:43;95391.66;;;25.87;42.32
27429;BME280;14881;48.092;11.574;2023-05-28T12:14:11;95394.97;;;25.41;41.58
27429;BME280;14881;48.092;11.574;2023-05-28T12:16:44;95392.97;;;25.38;42.49
27429;BME280;14881;48.092;11.574;2023-05-28T12:19:14;95388.25;;;25.49;46.15
27429;BME280;14881;48.092;11.574;2023-05-28T12:21:42;95384.00;;;25.08;43.23
27429;BME280;14881;48.092;11.574;2023-05-28T12:24:13;95386.97;;;24.85;44.36
27429;BME280;14881;48.092;11.574;2023-05-28T12:26:40;95391.56;;;24.67;44.41
27429;BME280;14881;48.092;11.574;2023-05-28T12:29:07;95386.34;;;25.02;44.72
27429;BME280;14881;48.092;11.574;2023-05-28T12:31:34;95386.66;;;24.93;50.37
27429;BME280;14881;48.092;11.574;2023-05-28T12:34:01;95391.16;;;25.09;48.76
27429;BME280;14881;48.092;11.574;2023-05-28T12:36:27;95388.28;;;24.98;50.62
27429;BME280;14881;48.092;11.574;2023-05-28T12:38:54;95379.06;;;24.90;49.25
27429;BME280;14881;48.092;11.574;2023-05-28T12:41:20;95391.66;;;24.77;48.25
27429;BME280;14881;48.092;11.574;2023-05-28T12:43:49;95380.97;;;24.39;44.83
27429;BME280;14881;48.092;11.574;2023-05-28T12:46:16;95380.34;;;23.85;45.71
27429;BME280;14881;48.092;11.574;2023-05-28T12:48:43;95380.19;;;23.75;48.21
27429;BME280;14881;48.092;11.574;2023-05-28T12:51:09;95377.00;;;23.73;nan
27429;BME280;14881;48.092;11.574;2023-05-28T12:53:36;95377.34;;;23.41;49.77
27429;BME280;14881;48.092;11.574;2023-05-28T12:56:03;95370.00;;;23.26;49.80
27429;BME280;14881;48.092;11.574;2023-05-28T12:58:30;95372.56;;;23.12;49.12
27429;BME280;14881;48.092;11.574;2023-05-28T13:00:57;95368.78;;;23.23;50.49
27429;BME280;14881;48.092;11.574;2023-05-28T13:03:24;95369.78;;;23.38;50.53
27429;BME280;14881;48.092;11.574;2023-05-28T13:05:52;95363.63;;;22.96;46.43
27429;BME280;14881;48.092;11.574;2023-05-28T13:08:18;95371.03;;;23.14;50.68
27429;BME280;14881;48.092;11.574;2023-05-28T13:10:44;95368.94;;;22.81;46.88